sensor_id;sensor_type;location;lat;lon;timestamp;temperature;humidity
54461;DHT22;40371;49.414;11.010;2022-11-15T00:00:30;7.50;99.90
54461;DHT22;40371;49.414;11.010;2022-11-15T00:03:18;7.50;99.90
54461;DHT22;40371;49.414;11.010;2022-11-15T00:06:04;7.50;99.90
54461;DHT22;40371;49.414;11.010;2022-11-15T00:08:48;7.50;99.90
54461;DHT22;40371;49.414;11.010;2022-11-15T00:11:32;7.50;99.90
54461;DHT22;40371;49.414;11.010;2022-11-15T00:14:16;7.40;99.90
54461;DHT22;40371;49.414;11.010;2022-11-15T00:17:00;7.40;99.90
54461;DHT22;40371;49.414;11.010;2022-11-15T00:19:44;7.40;99.90
54461;DHT22;40371;49.414;11.010;2022-11-15T00:22:32;7.40;99.90
54461;DHT22;40371;49.414;11.010;2022-11-15T00:25:17;7.40;99.90
54461;DHT22;40371;49.414;11.010;2022-11-15T00:28:01;7.40;99.90
54461;DHT22;40371;49.414;11.010;2022-11-15T00:30:45;7.30;99.90
54461;DHT22;40371;49.414;11.010;2022-11-15T00:33:29;7.40;99.90
54461;DHT22;40371;49.414;11.010;2022-11-15T00:36:14;7.30;99.90
54461;DHT22;40371;49.414;11.010;2022-11-15T00:38:58;7.30;99.90
54461;DHT22;40371;49.414;11.010;2022-11-15T00:41:42;7.10;99.90
54461;DHT22;40371;49.414;11.010;2022-11-15T00:44:26;7.10;99.90
54461;DHT22;40371;49.414;11.010;2022-11-15T00:47:11;7.00;99.90
54461;DHT22;40371;49.414;11.010;2022-11-15T00:49:55;7.00;99.90
54461;DHT22;40371;49.414;11.010;2022-11-15T00:52:39;6.90;99.90
54461;DHT22;40371;49.414;11.010;2022-11-15T00:55:23;6.90;99.90
54461;DHT22;40371;49.414;11.010;2022-11-15T00:58:08;7.00;99.90
54461;DHT22;40371;49.414;11.010;2022-11-15T01:00:52;6.90;99.90
54461;DHT22;40371;49.414;11.010;2022-11-15T01:03:38;6.90;99.90
54461;DHT22;40371;49.414;11.010;2022-11-15T01:06:22;6.90;99.90
54461;DHT22;40371;49.414;11.010;2022-11-15T01:09:06;6.80;99.90
54461;DHT22;40371;49.414;11.010;2022-11-15T01:11:51;6.80;99.90
54461;DHT22;40371;49.414;11.010;2022-11-15T01:14:36;6.80;99.90
54461;DHT22;40371;49.414;11.010;2022-11-15T01:17:20;6.70;99.90
54461;DHT22;40371;49.414;11.010;2022-11-15T01:20:05;6.70;99.90
54461;DHT22;40371;49.414;11.010;2022-11-15T01:22:49;6.70;99.90
54461;DHT22;40371;49.414;11.010;2022-11-15T01:25:33;6.70;99.90
54461;DHT22;40371;49.414;11.010;2022-11-15T01:28:17;6.80;99.90
54461;DHT22;40371;49.414;11.010;2022-11-15T01:31:03;6.80;99.90
54461;DHT22;40371;49.414;11.010;2022-11-15T01:33:48;6.80;99.90
54461;DHT22;40371;49.414;11.010;2022-11-15T01:36:33;6.80;99.90
54461;DHT22;40371;49.414;11.010;2022-11-15T01:39:17;6.70;99.90
54461;DHT22;40371;49.414;11.010;2022-11-15T01:42:01;6.80;99.90
54461;DHT22;40371;49.414;11.010;2022-11-15T01:44:52;6.70;99.90
54461;DHT22;40371;49.414;11.010;2022-11-15T01:47:41;6.60;99.90
54461;DHT22;40371;49.414;11.010;2022-11-15T01:50:30;6.50;99.90
54461;DHT22;40371;49.414;11.010;2022-11-15T01:53:17;6.50;99.90
54461;DHT22;40371;49.414;11.010;2022-11-15T01:56:04;6.50;99.90
54461;DHT22;40371;49.414;11.010;2022-11-15T01:58:51;6.40;99.90
54461;DHT22;40371;49.414;11.010;2022-11-15T02:01:36;6.40;99.90
54461;DHT22;40371;49.414;11.010;2022-11-15T02:04:29;6.40;99.90
54461;DHT22;40371;49.414;11.010;2022-11-15T02:07:17;6.40;99.90
54461;DHT22;40371;49.414;11.010;2022-11-15T02:10:07;6.60;99.90
54461;DHT22;40371;49.414;11.010;2022-11-15T02:12:52;6.70;99.90
54461;DHT22;40371;49.414;11.010;2022-11-15T02:15:43;6.60;99.90
54461;DHT22;40371;49.414;11.010;2022-11-15T02:18:37;6.60;99.90
54461;DHT22;40371;49.414;11.010;2022-11-15T02:25:07;6.50;99.90
54461;DHT22;40371;49.414;11.010;2022-11-15T02:28:16;6.50;99.90
54461;DHT22;40371;49.414;11.010;2022-11-15T02:31:25;6.30;99.90
54461;DHT22;40371;49.414;11.010;2022-11-15T02:34:24;6.40;99.90
54461;DHT22;40371;49.414;11.010;2022-11-15T02:37:39;6.50;99.90
54461;DHT22;40371;49.414;11.010;2022-11-15T02:40:58;6.60;99.90
54461;DHT22;40371;49.414;11.010;2022-11-15T02:43:48;6.50;99.90
54461;DHT22;40371;49.414;11.010;2022-11-15T02:46:51;6.50;99.90
54461;DHT22;40371;49.414;11.010;2022-11-15T02:49:59;6.50;99.90
54461;DHT22;40371;49.414;11.010;2022-11-15T02:52:45;6.40;99.90
54461;DHT22;40371;49.414;11.010;2022-11-15T02:55:36;6.30;99.90
54461;DHT22;40371;49.414;11.010;2022-11-15T03:04:45;6.10;99.90
54461;DHT22;40371;49.414;11.010;2022-11-15T03:07:41;6.20;99.90
54461;DHT22;40371;49.414;11.010;2022-11-15T03:10:48;6.30;99.90
54461;DHT22;40371;49.414;11.010;2022-11-15T03:13:58;6.30;99.90
54461;DHT22;40371;49.414;11.010;2022-11-15T03:19:58;6.20;99.90
54461;DHT22;40371;49.414;11.010;2022-11-15T03:22:45;6.20;99.90
54461;DHT22;40371;49.414;11.010;2022-11-15T03:25:32;6.20;99.90
54461;DHT22;40371;49.414;11.010;2022-11-15T03:28:25;6.30;99.90
54461;DHT22;40371;49.414;11.010;2022-11-15T03:31:14;6.30;99.90
54461;DHT22;40371;49.414;11.010;2022-11-15T03:34:29;6.20;99.90
54461;DHT22;40371;49.414;11.010;2022-11-15T03:37:16;6.20;99.90
54461;DHT22;40371;49.414;11.010;2022-11-15T03:40:02;6.20;99.90
54461;DHT22;40371;49.414;11.010;2022-11-15T03:45:59;6.20;99.90
54461;DHT22;40371;49.414;11.010;2022-11-15T03:48:52;6.20;99.90
54461;DHT22;40371;49.414;11.010;2022-11-15T03:51:37;6.10;99.90
54461;DHT22;40371;49.414;11.010;2022-11-15T03:54:22;6.10;99.90
54461;DHT22;40371;49.414;11.010;2022-11-15T03:57:06;6.10;99.90
54461;DHT22;40371;49.414;11.010;2022-11-15T03:59:50;6.10;99.90
54461;DHT22;40371;49.414;11.010;2022-11-15T04:02:34;6.10;99.90
54461;DHT22;40371;49.414;11.010;2022-11-15T04:05:18;6.20;99.90
54461;DHT22;40371;49.414;11.010;2022-11-15T04:08:03;6.10;99.90
54461;DHT22;40371;49.414;11.010;2022-11-15T04:10:49;6.20;99.90
54461;DHT22;40371;49.414;11.010;2022-11-15T04:13:33;6.20;99.90
54461;DHT22;40371;49.414;11.010;2022-11-15T04:16:17;6.30;99.90
54461;DHT22;40371;49.414;11.010;2022-11-15T04:19:01;6.30;99.90
54461;DHT22;40371;49.414;11.010;2022-11-15T04:22:07;6.30;99.90
54461;DHT22;40371;49.414;11.010;2022-11-15T04:25:10;6.20;99.90
54461;DHT22;40371;49.414;11.010;2022-11-15T04:27:54;6.10;99.90
54461;DHT22;40371;49.414;11.010;2022-11-15T04:30:39;6.00;99.90
54461;DHT22;40371;49.414;11.010;2022-11-15T04:33:23;6.00;99.90
54461;DHT22;40371;49.414;11.010;2022-11-15T04:36:07;6.10;99.90
54461;DHT22;40371;49.414;11.010;2022-11-15T04:39:10;6.00;99.90
54461;DHT22;40371;49.414;11.010;2022-11-15T04:41:54;6.00;99.90
54461;DHT22;40371;49.414;11.010;2022-11-15T04:44:38;6.00;99.90
54461;DHT22;40371;49.414;11.010;2022-11-15T04:47:22;6.00;99.90
54461;DHT22;40371;49.414;11.010;2022-11-15T04:50:07;5.90;99.90
54461;DHT22;40371;49.414;11.010;2022-11-15T04:52:53;5.90;99.90
54461;DHT22;40371;49.414;11.010;2022-11-15T04:55:37;5.80;99.90
54461;DHT22;40371;49.414;11.010;2022-11-15T04:58:21;5.80;99.90
54461;DHT22;40371;49.414;11.010;2022-11-15T05:01:13;5.90;99.90
54461;DHT22;40371;49.414;11.010;2022-11-15T05:03:58;5.80;99.90
54461;DHT22;40371;49.414;11.010;2022-11-15T05:07:01;5.80;99.90
54461;DHT22;40371;49.414;11.010;2022-11-15T05:09:45;5.80;99.90
54461;DHT22;40371;49.414;11.010;2022-11-15T05:12:30;5.60;99.90
54461;DHT22;40371;49.414;11.010;2022-11-15T05:15:14;5.50;99.90
54461;DHT22;40371;49.414;11.010;2022-11-15T05:17:58;5.50;99.90
54461;DHT22;40371;49.414;11.010;2022-11-15T05:20:43;5.50;99.90
54461;DHT22;40371;49.414;11.010;2022-11-15T05:23:27;5.60;99.90
54461;DHT22;40371;49.414;11.010;2022-11-15T05:26:16;5.60;99.90
54461;DHT22;40371;49.414;11.010;2022-11-15T05:29:02;5.50;99.90
54461;DHT22;40371;49.414;11.010;2022-11-15T05:31:46;5.50;99.90
54461;DHT22;40371;49.414;11.010;2022-11-15T05:34:31;5.60;99.90
54461;DHT22;40371;49.414;11.010;2022-11-15T05:37:15;5.60;99.90
54461;DHT22;40371;49.414;11.010;2022-11-15T05:40:00;5.70;99.90
54461;DHT22;40371;49.414;11.010;2022-11-15T05:42:45;5.70;99.90
54461;DHT22;40371;49.414;11.010;2022-11-15T05:45:31;5.80;99.90
54461;DHT22;40371;49.414;11.010;2022-11-15T05:48:16;5.80;99.90
54461;DHT22;40371;49.414;11.010;2022-11-15T05:51:01;5.80;99.90
54461;DHT22;40371;49.414;11.010;2022-11-15T05:53:47;5.80;99.90
54461;DHT22;40371;49.414;11.010;2022-11-15T05:56:32;5.80;99.90
54461;DHT22;40371;49.414;11.010;2022-11-15T05:59:17;5.70;99.90
54461;DHT22;40371;49.414;11.010;2022-11-15T06:02:01;5.60;99.90
54461;DHT22;40371;49.414;11.010;2022-11-15T06:04:46;5.60;99.90
54461;DHT22;40371;49.414;11.010;2022-11-15T06:07:31;5.40;99.90
54461;DHT22;40371;49.414;11.010;2022-11-15T06:10:15;5.60;99.90
54461;DHT22;40371;49.414;11.010;2022-11-15T06:13:04;5.60;99.90
54461;DHT22;40371;49.414;11.010;2022-11-15T06:15:48;5.40;99.90
54461;DHT22;40371;49.414;11.010;2022-11-15T06:18:34;5.40;99.90
54461;DHT22;40371;49.414;11.010;2022-11-15T06:21:18;5.50;99.90
54461;DHT22;40371;49.414;11.010;2022-11-15T06:24:02;5.60;99.90
54461;DHT22;40371;49.414;11.010;2022-11-15T06:26:46;5.70;99.90
54461;DHT22;40371;49.414;11.010;2022-11-15T06:29:30;5.70;99.90
54461;DHT22;40371;49.414;11.010;2022-11-15T06:32:14;5.60;99.90
54461;DHT22;40371;49.414;11.010;2022-11-15T06:34:58;5.60;99.90
54461;DHT22;40371;49.414;11.010;2022-11-15T06:37:43;5.70;99.90
54461;DHT22;40371;49.414;11.010;2022-11-15T06:40:27;5.70;99.90
54461;DHT22;40371;49.414;11.010;2022-11-15T06:43:11;5.80;99.90
54461;DHT22;40371;49.414;11.010;2022-11-15T06:45:55;5.70;99.90
54461;DHT22;40371;49.414;11.010;2022-11-15T06:48:39;5.70;99.90
54461;DHT22;40371;49.414;11.010;2022-11-15T06:51:23;5.70;99.90
54461;DHT22;40371;49.414;11.010;2022-11-15T06:54:07;5.60;99.90
54461;DHT22;40371;49.414;11.010;2022-11-15T06:56:51;5.50;99.90
54461;DHT22;40371;49.414;11.010;2022-11-15T06:59:36;5.40;99.90
54461;DHT22;40371;49.414;11.010;2022-11-15T07:02:20;5.50;99.90
54461;DHT22;40371;49.414;11.010;2022-11-15T07:05:04;5.70;99.90
54461;DHT22;40371;49.414;11.010;2022-11-15T07:07:53;5.60;99.90
54461;DHT22;40371;49.414;11.010;2022-11-15T07:10:37;5.60;99.90
54461;DHT22;40371;49.414;11.010;2022-11-15T07:13:25;5.40;99.90
54461;DHT22;40371;49.414;11.010;2022-11-15T07:16:10;5.40;99.90
54461;DHT22;40371;49.414;11.010;2022-11-15T07:18:54;5.70;99.90
54461;DHT22;40371;49.414;11.010;2022-11-15T07:21:38;5.70;99.90
54461;DHT22;40371;49.414;11.010;2022-11-15T07:24:23;5.80;99.90
54461;DHT22;40371;49.414;11.010;2022-11-15T07:27:07;6.00;99.90
54461;DHT22;40371;49.414;11.010;2022-11-15T07:29:51;6.10;99.90
54461;DHT22;40371;49.414;11.010;2022-11-15T07:32:35;6.20;99.90
54461;DHT22;40371;49.414;11.010;2022-11-15T07:35:19;6.30;99.90
54461;DHT22;40371;49.414;11.010;2022-11-15T07:38:03;6.50;99.90
54461;DHT22;40371;49.414;11.010;2022-11-15T07:40:56;6.60;99.90
54461;DHT22;40371;49.414;11.010;2022-11-15T07:43:41;6.70;99.90
54461;DHT22;40371;49.414;11.010;2022-11-15T07:46:25;6.90;99.90
54461;DHT22;40371;49.414;11.010;2022-11-15T07:49:09;6.90;99.90
54461;DHT22;40371;49.414;11.010;2022-11-15T07:51:53;7.00;99.90
54461;DHT22;40371;49.414;11.010;2022-11-15T07:54:37;7.00;99.90
54461;DHT22;40371;49.414;11.010;2022-11-15T07:57:22;7.20;99.90
54461;DHT22;40371;49.414;11.010;2022-11-15T08:00:06;7.30;99.90
54461;DHT22;40371;49.414;11.010;2022-11-15T08:02:50;7.40;99.90
54461;DHT22;40371;49.414;11.010;2022-11-15T08:05:36;7.50;99.90
54461;DHT22;40371;49.414;11.010;2022-11-15T08:08:20;7.70;99.90
54461;DHT22;40371;49.414;11.010;2022-11-15T08:11:04;7.80;99.90
54461;DHT22;40371;49.414;11.010;2022-11-15T08:13:48;7.90;99.90
54461;DHT22;40371;49.414;11.010;2022-11-15T08:16:33;7.90;99.90
54461;DHT22;40371;49.414;11.010;2022-11-15T08:19:17;8.10;99.90
54461;DHT22;40371;49.414;11.010;2022-11-15T08:22:01;8.20;99.90
54461;DHT22;40371;49.414;11.010;2022-11-15T08:24:45;8.30;99.90
54461;DHT22;40371;49.414;11.010;2022-11-15T08:27:29;8.50;99.90
54461;DHT22;40371;49.414;11.010;2022-11-15T08:30:13;8.60;99.90
54461;DHT22;40371;49.414;11.010;2022-11-15T08:33:00;8.70;99.90
54461;DHT22;40371;49.414;11.010;2022-11-15T08:35:44;8.80;99.90
54461;DHT22;40371;49.414;11.010;2022-11-15T08:38:28;9.20;99.90
54461;DHT22;40371;49.414;11.010;2022-11-15T08:41:40;9.40;99.90
54461;DHT22;40371;49.414;11.010;2022-11-15T08:44:24;9.70;99.90
54461;DHT22;40371;49.414;11.010;2022-11-15T08:47:11;9.90;99.90
54461;DHT22;40371;49.414;11.010;2022-11-15T08:49:56;10.20;99.90
54461;DHT22;40371;49.414;11.010;2022-11-15T08:52:40;10.70;99.90
54461;DHT22;40371;49.414;11.010;2022-11-15T08:55:24;10.90;99.90
54461;DHT22;40371;49.414;11.010;2022-11-15T08:58:08;11.20;99.90
54461;DHT22;40371;49.414;11.010;2022-11-15T09:00:52;12.00;99.90
54461;DHT22;40371;49.414;11.010;2022-11-15T09:03:36;12.70;99.90
54461;DHT22;40371;49.414;11.010;2022-11-15T09:06:23;14.10;99.90
54461;DHT22;40371;49.414;11.010;2022-11-15T09:09:07;14.90;99.90
54461;DHT22;40371;49.414;11.010;2022-11-15T09:11:51;15.80;99.90
54461;DHT22;40371;49.414;11.010;2022-11-15T09:14:35;16.30;99.90
54461;DHT22;40371;49.414;11.010;2022-11-15T09:17:19;16.60;99.90
54461;DHT22;40371;49.414;11.010;2022-11-15T09:20:04;16.30;99.90
54461;DHT22;40371;49.414;11.010;2022-11-15T09:22:48;16.40;99.90
54461;DHT22;40371;49.414;11.010;2022-11-15T09:25:32;16.20;99.90
54461;DHT22;40371;49.414;11.010;2022-11-15T09:28:17;16.70;99.90
54461;DHT22;40371;49.414;11.010;2022-11-15T09:31:03;16.90;99.90
54461;DHT22;40371;49.414;11.010;2022-11-15T09:33:47;16.60;99.90
54461;DHT22;40371;49.414;11.010;2022-11-15T09:36:32;16.50;99.90
54461;DHT22;40371;49.414;11.010;2022-11-15T09:39:15;16.10;99.90
54461;DHT22;40371;49.414;11.010;2022-11-15T09:42:31;16.20;99.90
54461;DHT22;40371;49.414;11.010;2022-11-15T09:45:28;16.40;99.90
54461;DHT22;40371;49.414;11.010;2022-11-15T09:48:41;16.90;99.90
54461;DHT22;40371;49.414;11.010;2022-11-15T09:51:36;17.00;99.90
54461;DHT22;40371;49.414;11.010;2022-11-15T09:56:52;17.10;99.90
54461;DHT22;40371;49.414;11.010;2022-11-15T10:05:16;16.70;99.90
54461;DHT22;40371;49.414;11.010;2022-11-15T10:12:57;17.50;99.90
54461;DHT22;40371;49.414;11.010;2022-11-15T10:15:23;17.40;99.90
54461;DHT22;40371;49.414;11.010;2022-11-15T10:18:17;17.80;99.90
54461;DHT22;40371;49.414;11.010;2022-11-15T10:20:52;17.70;99.90
54461;DHT22;40371;49.414;11.010;2022-11-15T10:23:22;17.70;99.90
54461;DHT22;40371;49.414;11.010;2022-11-15T10:25:52;17.70;99.90
54461;DHT22;40371;49.414;11.010;2022-11-15T10:28:36;17.80;99.90
54461;DHT22;40371;49.414;11.010;2022-11-15T10:31:02;18.00;99.00
54461;DHT22;40371;49.414;11.010;2022-11-15T10:33:39;18.80;98.50
54461;DHT22;40371;49.414;11.010;2022-11-15T10:38:51;19.20;97.10
54461;DHT22;40371;49.414;11.010;2022-11-15T10:47:03;19.40;95.10
54461;DHT22;40371;49.414;11.010;2022-11-15T10:49:32;19.20;95.80
54461;DHT22;40371;49.414;11.010;2022-11-15T10:57:14;19.50;96.00
54461;DHT22;40371;49.414;11.010;2022-11-15T10:59:48;19.70;95.50
54461;DHT22;40371;49.414;11.010;2022-11-15T11:02:34;19.60;95.10
54461;DHT22;40371;49.414;11.010;2022-11-15T11:05:01;19.20;94.30
54461;DHT22;40371;49.414;11.010;2022-11-15T11:07:31;19.20;94.90
54461;DHT22;40371;49.414;11.010;2022-11-15T11:09:59;19.40;94.10
54461;DHT22;40371;49.414;11.010;2022-11-15T11:12:30;19.50;93.10
54461;DHT22;40371;49.414;11.010;2022-11-15T11:14:58;19.30;93.50
54461;DHT22;40371;49.414;11.010;2022-11-15T11:20:30;18.80;94.10
54461;DHT22;40371;49.414;11.010;2022-11-15T11:28:40;18.70;94.30
54461;DHT22;40371;49.414;11.010;2022-11-15T11:36:56;18.40;94.60
54461;DHT22;40371;49.414;11.010;2022-11-15T11:47:22;18.50;94.40
54461;DHT22;40371;49.414;11.010;2022-11-15T11:49:57;18.40;94.80
54461;DHT22;40371;49.414;11.010;2022-11-15T11:52:34;18.30;94.50
54461;DHT22;40371;49.414;11.010;2022-11-15T11:55:26;18.10;94.60
54461;DHT22;40371;49.414;11.010;2022-11-15T11:58:05;17.90;95.00
54461;DHT22;40371;49.414;11.010;2022-11-15T12:00:40;17.70;95.20
54461;DHT22;40371;49.414;11.010;2022-11-15T12:03:30;17.60;95.00
54461;DHT22;40371;49.414;11.010;2022-11-15T12:06:20;17.50;95.40
54461;DHT22;40371;49.414;11.010;2022-11-15T12:08:59;17.50;95.70
54461;DHT22;40371;49.414;11.010;2022-11-15T12:11:58;17.50;96.30
54461;DHT22;40371;49.414;11.010;2022-11-15T12:14:38;17.40;95.70
54461;DHT22;40371;49.414;11.010;2022-11-15T12:17:09;17.40;95.80
54461;DHT22;40371;49.414;11.010;2022-11-15T12:19:35;17.20;96.00
54461;DHT22;40371;49.414;11.010;2022-11-15T12:22:18;17.10;95.80
54461;DHT22;40371;49.414;11.010;2022-11-15T12:24:57;16.90;96.30
54461;DHT22;40371;49.414;11.010;2022-11-15T12:27:44;16.80;96.30
54461;DHT22;40371;49.414;11.010;2022-11-15T12:30:16;16.80;96.30
54461;DHT22;40371;49.414;11.010;2022-11-15T12:32:56;16.90;96.50
54461;DHT22;40371;49.414;11.010;2022-11-15T12:35:27;17.00;96.30
54461;DHT22;40371;49.414;11.010;2022-11-15T12:37:54;16.80;96.20
54461;DHT22;40371;49.414;11.010;2022-11-15T12:40:31;16.90;96.60
54461;DHT22;40371;49.414;11.010;2022-11-15T12:43:04;16.80;96.60
54461;DHT22;40371;49.414;11.010;2022-11-15T12:45:38;16.90;96.50
54461;DHT22;40371;49.414;11.010;2022-11-15T12:53:29;16.50;96.50
54461;DHT22;40371;49.414;11.010;2022-11-15T13:07:07;16.40;97.50
54461;DHT22;40371;49.414;11.010;2022-11-15T13:14:49;16.20;98.00
54461;DHT22;40371;49.414;11.010;2022-11-15T13:31:36;15.90;98.50
54461;DHT22;40371;49.414;11.010;2022-11-15T13:34:27;15.90;98.70
54461;DHT22;40371;49.414;11.010;2022-11-15T13:36:53;15.90;98.90
54461;DHT22;40371;49.414;11.010;2022-11-15T13:39:26;15.80;99.20
54461;DHT22;40371;49.414;11.010;2022-11-15T13:41:52;15.90;99.50
54461;DHT22;40371;49.414;11.010;2022-11-15T13:44:24;15.80;99.60
54461;DHT22;40371;49.414;11.010;2022-11-15T13:47:06;15.80;99.60
54461;DHT22;40371;49.414;11.010;2022-11-15T13:49:34;15.80;99.90
54461;DHT22;40371;49.414;11.010;2022-11-15T13:52:05;15.80;99.90
54461;DHT22;40371;49.414;11.010;2022-11-15T13:54:50;15.80;99.90
54461;DHT22;40371;49.414;11.010;2022-11-15T13:57:22;15.80;99.90
54461;DHT22;40371;49.414;11.010;2022-11-15T13:59:59;15.80;99.90
54461;DHT22;40371;49.414;11.010;2022-11-15T14:02:28;15.70;99.90
54461;DHT22;40371;49.414;11.010;2022-11-15T14:05:02;15.60;99.90
54461;DHT22;40371;49.414;11.010;2022-11-15T14:07:28;15.60;99.90
54461;DHT22;40371;49.414;11.010;2022-11-15T14:09:54;15.60;99.90
54461;DHT22;40371;49.414;11.010;2022-11-15T14:12:34;15.60;99.90
54461;DHT22;40371;49.414;11.010;2022-11-15T14:15:29;15.50;99.90
54461;DHT22;40371;49.414;11.010;2022-11-15T14:17:55;15.40;99.90
54461;DHT22;40371;49.414;11.010;2022-11-15T14:20:30;15.20;99.90
54461;DHT22;40371;49.414;11.010;2022-11-15T14:25:56;15.10;99.90
54461;DHT22;40371;49.414;11.010;2022-11-15T14:30:48;15.00;99.90
54461;DHT22;40371;49.414;11.010;2022-11-15T14:33:35;14.90;99.90
54461;DHT22;40371;49.414;11.010;2022-11-15T14:36:14;14.90;99.90
54461;DHT22;40371;49.414;11.010;2022-11-15T14:38:40;14.80;99.90
54461;DHT22;40371;49.414;11.010;2022-11-15T14:41:20;14.70;99.90
54461;DHT22;40371;49.414;11.010;2022-11-15T14:43:46;14.70;99.90
54461;DHT22;40371;49.414;11.010;2022-11-15T14:46:11;14.60;99.90
54461;DHT22;40371;49.414;11.010;2022-11-15T14:48:37;14.60;99.90
54461;DHT22;40371;49.414;11.010;2022-11-15T14:51:03;14.50;99.90
54461;DHT22;40371;49.414;11.010;2022-11-15T14:53:28;14.40;99.90
54461;DHT22;40371;49.414;11.010;2022-11-15T14:55:54;14.30;99.90
54461;DHT22;40371;49.414;11.010;2022-11-15T14:58:19;14.20;99.90
54461;DHT22;40371;49.414;11.010;2022-11-15T15:00:45;14.20;99.90
54461;DHT22;40371;49.414;11.010;2022-11-15T15:03:11;14.10;99.90
54461;DHT22;40371;49.414;11.010;2022-11-15T15:05:42;14.10;99.90
54461;DHT22;40371;49.414;11.010;2022-11-15T15:08:09;14.00;99.90
54461;DHT22;40371;49.414;11.010;2022-11-15T15:10:43;13.90;99.90
54461;DHT22;40371;49.414;11.010;2022-11-15T15:13:23;13.80;99.90
54461;DHT22;40371;49.414;11.010;2022-11-15T15:15:50;13.70;99.90
54461;DHT22;40371;49.414;11.010;2022-11-15T15:18:17;13.70;99.90
54461;DHT22;40371;49.414;11.010;2022-11-15T15:20:44;13.60;99.90
54461;DHT22;40371;49.414;11.010;2022-11-15T15:23:18;13.50;99.90
54461;DHT22;40371;49.414;11.010;2022-11-15T15:25:45;13.40;99.90
54461;DHT22;40371;49.414;11.010;2022-11-15T15:28:12;13.30;99.90
54461;DHT22;40371;49.414;11.010;2022-11-15T15:30:37;13.20;99.90
54461;DHT22;40371;49.414;11.010;2022-11-15T15:33:03;13.10;99.90
54461;DHT22;40371;49.414;11.010;2022-11-15T15:35:30;13.00;99.90
54461;DHT22;40371;49.414;11.010;2022-11-15T15:37:57;13.00;99.90
54461;DHT22;40371;49.414;11.010;2022-11-15T15:40:24;12.90;99.90
54461;DHT22;40371;49.414;11.010;2022-11-15T15:42:50;12.70;99.90
54461;DHT22;40371;49.414;11.010;2022-11-15T15:45:17;12.50;99.90
54461;DHT22;40371;49.414;11.010;2022-11-15T15:47:44;12.30;99.90
54461;DHT22;40371;49.414;11.010;2022-11-15T15:50:26;12.30;99.90
54461;DHT22;40371;49.414;11.010;2022-11-15T15:52:54;12.30;99.90
54461;DHT22;40371;49.414;11.010;2022-11-15T15:55:20;12.30;99.90
54461;DHT22;40371;49.414;11.010;2022-11-15T15:57:47;12.40;99.90
54461;DHT22;40371;49.414;11.010;2022-11-15T16:00:13;12.40;99.90
54461;DHT22;40371;49.414;11.010;2022-11-15T16:02:39;12.40;99.90
54461;DHT22;40371;49.414;11.010;2022-11-15T16:05:06;12.40;99.90
54461;DHT22;40371;49.414;11.010;2022-11-15T16:07:32;12.40;99.90
54461;DHT22;40371;49.414;11.010;2022-11-15T16:09:58;12.40;99.90
54461;DHT22;40371;49.414;11.010;2022-11-15T16:12:34;12.40;99.90
54461;DHT22;40371;49.414;11.010;2022-11-15T16:15:00;12.40;99.90
54461;DHT22;40371;49.414;11.010;2022-11-15T16:17:32;12.40;99.90
54461;DHT22;40371;49.414;11.010;2022-11-15T16:19:59;12.30;99.90
54461;DHT22;40371;49.414;11.010;2022-11-15T16:22:25;12.20;99.90
54461;DHT22;40371;49.414;11.010;2022-11-15T16:24:50;11.90;99.90
54461;DHT22;40371;49.414;11.010;2022-11-15T16:27:18;11.90;99.90
54461;DHT22;40371;49.414;11.010;2022-11-15T16:29:45;12.00;99.90
54461;DHT22;40371;49.414;11.010;2022-11-15T16:32:12;12.00;99.90
54461;DHT22;40371;49.414;11.010;2022-11-15T16:34:38;11.90;99.90
54461;DHT22;40371;49.414;11.010;2022-11-15T16:37:04;11.80;99.90
54461;DHT22;40371;49.414;11.010;2022-11-15T16:39:30;11.60;99.90
54461;DHT22;40371;49.414;11.010;2022-11-15T16:41:57;11.50;99.90
54461;DHT22;40371;49.414;11.010;2022-11-15T16:44:22;11.40;99.90
54461;DHT22;40371;49.414;11.010;2022-11-15T16:46:49;11.50;99.90
54461;DHT22;40371;49.414;11.010;2022-11-15T16:49:19;11.50;99.90
54461;DHT22;40371;49.414;11.010;2022-11-15T16:51:46;11.50;99.90
54461;DHT22;40371;49.414;11.010;2022-11-15T16:54:12;11.40;99.90
54461;DHT22;40371;49.414;11.010;2022-11-15T16:56:38;11.40;99.90
54461;DHT22;40371;49.414;11.010;2022-11-15T16:59:04;11.40;99.90
54461;DHT22;40371;49.414;11.010;2022-11-15T17:01:36;11.60;99.90
54461;DHT22;40371;49.414;11.010;2022-11-15T17:04:03;11.50;99.90
54461;DHT22;40371;49.414;11.010;2022-11-15T17:06:41;11.40;99.90
54461;DHT22;40371;49.414;11.010;2022-11-15T17:11:40;11.10;99.90
54461;DHT22;40371;49.414;11.010;2022-11-15T17:14:05;11.00;99.90
54461;DHT22;40371;49.414;11.010;2022-11-15T17:16:31;11.00;99.90
54461;DHT22;40371;49.414;11.010;2022-11-15T17:18:58;10.90;99.90
54461;DHT22;40371;49.414;11.010;2022-11-15T17:21:24;10.90;99.90
54461;DHT22;40371;49.414;11.010;2022-11-15T17:23:53;10.80;99.90
54461;DHT22;40371;49.414;11.010;2022-11-15T17:26:19;10.70;99.90
54461;DHT22;40371;49.414;11.010;2022-11-15T17:28:44;10.70;99.90
54461;DHT22;40371;49.414;11.010;2022-11-15T17:31:11;10.80;99.90
54461;DHT22;40371;49.414;11.010;2022-11-15T17:33:38;10.70;99.90
54461;DHT22;40371;49.414;11.010;2022-11-15T17:36:09;10.80;99.90
54461;DHT22;40371;49.414;11.010;2022-11-15T17:38:35;10.80;99.90
54461;DHT22;40371;49.414;11.010;2022-11-15T17:41:02;10.80;99.90
54461;DHT22;40371;49.414;11.010;2022-11-15T17:43:29;10.90;99.90
54461;DHT22;40371;49.414;11.010;2022-11-15T17:45:55;10.90;99.90
54461;DHT22;40371;49.414;11.010;2022-11-15T17:48:21;11.00;99.90
54461;DHT22;40371;49.414;11.010;2022-11-15T17:51:01;11.00;99.90
54461;DHT22;40371;49.414;11.010;2022-11-15T17:53:34;11.10;99.90
54461;DHT22;40371;49.414;11.010;2022-11-15T17:56:04;11.10;99.90
54461;DHT22;40371;49.414;11.010;2022-11-15T17:58:31;11.10;99.90
54461;DHT22;40371;49.414;11.010;2022-11-15T18:01:18;11.10;99.90
54461;DHT22;40371;49.414;11.010;2022-11-15T18:03:44;11.00;99.90
54461;DHT22;40371;49.414;11.010;2022-11-15T18:06:10;11.10;99.90
54461;DHT22;40371;49.414;11.010;2022-11-15T18:08:36;11.00;99.90
54461;DHT22;40371;49.414;11.010;2022-11-15T18:11:17;11.10;99.90
54461;DHT22;40371;49.414;11.010;2022-11-15T18:13:45;11.10;99.90
54461;DHT22;40371;49.414;11.010;2022-11-15T18:16:13;11.00;99.90
54461;DHT22;40371;49.414;11.010;2022-11-15T18:18:40;11.00;99.90
54461;DHT22;40371;49.414;11.010;2022-11-15T18:23:34;10.90;99.90
54461;DHT22;40371;49.414;11.010;2022-11-15T18:26:01;10.80;99.90
54461;DHT22;40371;49.414;11.010;2022-11-15T18:28:34;10.80;99.90
54461;DHT22;40371;49.414;11.010;2022-11-15T18:31:01;10.90;99.90
54461;DHT22;40371;49.414;11.010;2022-11-15T18:33:28;11.00;99.90